Time;durP1;ratioP1;P1;durP2;ratioP2;P2;SDS_P1;SDS_P2;PMS_P1;PMS_P2;Temp;Humidity;BMP_temperature;BMP_pressure;BME280_temperature;BME280_humidity;BME280_pressure;Samples;Min_cycle;Max_cycle;Signal;HPM_P1;HPM_P2
2022/11/18 00:00:55;;;;;;;104.30;59.30;;;;;;;8.91;100.00;93634.22;5131558;27;20227;-79
2022/11/18 00:03:23;;;;;;;103.53;59.53;;;;;;;8.85;100.00;93629.97;5133492;27;20191;-82
2022/11/18 00:05:54;;;;;;;100.73;56.63;;;;;;;8.85;100.00;93624.78;5136540;27;20192;-80
2022/11/18 00:08:21;;;;;;;81.00;48.77;;;;;;;8.70;100.00;93621.91;5137612;27;20191;-78
2022/11/18 00:10:48;;;;;;;85.03;49.60;;;;;;;8.76;100.00;93624.38;5129906;27;20219;-77
2022/11/18 00:16:06;;;;;;;89.03;51.13;;;;;;;8.68;100.00;93627.34;5129100;27;20773;-78
2022/11/18 00:18:33;;;;;;;78.63;47.90;;;;;;;8.74;100.00;93644.56;5129948;27;20878;-78
2022/11/18 00:21:02;;;;;;;76.67;44.20;;;;;;;8.72;100.00;93633.59;5138956;27;20221;-83
2022/11/18 00:23:29;;;;;;;78.30;47.77;;;;;;;8.76;100.00;93631.34;5136908;27;20220;-83
2022/11/18 00:25:56;;;;;;;82.20;48.80;;;;;;;8.60;100.00;93621.75;5141697;27;20273;-82
2022/11/18 00:28:22;;;;;;;82.70;46.97;;;;;;;8.60;100.00;93626.91;5140574;27;20191;-82
2022/11/18 00:30:49;;;;;;;87.63;50.80;;;;;;;8.71;100.00;93632.06;5148488;27;20219;-82
2022/11/18 00:33:17;;;;;;;90.43;52.00;;;;;;;8.68;100.00;93634.31;5142995;27;20248;-83
2022/11/18 00:35:44;;;;;;;90.60;52.57;;;;;;;8.61;100.00;93633.66;5140486;27;20195;-81
2022/11/18 00:38:11;;;;;;;97.20;53.47;;;;;;;8.62;100.00;93630.06;5139922;27;20195;-81
2022/11/18 00:40:37;;;;;;;96.10;54.20;;;;;;;8.60;100.00;93632.09;5137458;27;20203;-82
2022/11/18 00:43:03;;;;;;;94.63;53.30;;;;;;;8.60;100.00;93627.69;5145388;27;20206;-80
2022/11/18 00:45:30;;;;;;;93.40;53.03;;;;;;;8.57;100.00;93630.75;5154477;27;20214;-82
2022/11/18 00:47:57;;;;;;;96.83;52.20;;;;;;;8.50;100.00;93630.88;5147351;27;20195;-85
2022/11/18 00:50:25;;;;;;;89.40;52.20;;;;;;;8.45;100.00;93630.00;5149924;27;20226;-83
2022/11/18 00:52:52;;;;;;;96.10;51.37;;;;;;;8.49;100.00;93637.06;5147196;27;20613;-82
2022/11/18 00:55:19;;;;;;;97.30;51.87;;;;;;;8.42;100.00;93626.09;5141054;27;20195;-82
2022/11/18 00:57:45;;;;;;;94.03;53.30;;;;;;;8.43;100.00;93624.25;5150302;27;20202;-83
2022/11/18 01:00:13;;;;;;;87.70;52.10;;;;;;;8.42;100.00;93626.09;5140322;27;20187;-83
2022/11/18 01:02:40;;;;;;;89.13;50.47;;;;;;;8.45;100.00;93627.41;5148056;27;20755;-82
2022/11/18 01:05:07;;;;;;;87.97;50.10;;;;;;;8.46;100.00;93623.78;5140713;27;20629;-78
2022/11/18 01:07:35;;;;;;;81.30;48.03;;;;;;;8.50;100.00;93630.88;5135480;27;20202;-77
2022/11/18 01:10:02;;;;;;;83.60;47.90;;;;;;;8.31;100.00;93605.41;5133374;27;20704;-78
2022/11/18 01:15:14;;;;;;;76.87;46.57;;;;;;;8.48;100.00;93626.97;5135517;27;20316;-77
2022/11/18 01:17:40;;;;;;;83.23;48.00;;;;;;;8.39;100.00;93631.72;5135644;27;20195;-78
2022/11/18 01:20:08;;;;;;;80.40;48.17;;;;;;;8.27;100.00;93612.84;5136909;27;20195;-78
2022/11/18 01:22:36;;;;;;;74.23;43.37;;;;;;;8.33;100.00;93619.69;5137956;27;20192;-78
2022/11/18 01:25:04;;;;;;;67.90;40.90;;;;;;;8.21;100.00;93613.72;5136512;27;20709;-78
2022/11/18 01:27:31;;;;;;;65.20;38.53;;;;;;;8.28;100.00;93629.16;5133889;27;20195;-76
2022/11/18 01:29:58;;;;;;;71.50;40.03;;;;;;;8.23;100.00;93629.00;5135337;27;20219;-79
2022/11/18 01:32:25;;;;;;;70.00;40.53;;;;;;;8.23;100.00;93629.78;5134843;27;20226;-78
2022/11/18 01:34:51;;;;;;;69.90;40.37;;;;;;;8.23;100.00;93629.78;5132131;27;20203;-77
2022/11/18 01:37:18;;;;;;;65.10;39.53;;;;;;;8.24;100.00;93633.19;5132591;27;20199;-77
2022/11/18 01:39:47;;;;;;;67.70;39.33;;;;;;;8.22;100.00;93636.00;5131887;27;20195;-78
2022/11/18 01:42:15;;;;;;;68.67;40.83;;;;;;;8.20;100.00;93624.28;5133193;27;20225;-77
2022/11/18 01:45:19;;;;;;;67.23;39.80;;;;;;;8.21;100.00;93623.28;5132600;27;20206;-78
2022/11/18 01:47:51;;;;;;;73.90;41.20;;;;;;;8.23;100.00;93624.63;5096436;27;20205;-77
2022/11/18 01:50:20;;;;;;;80.10;43.47;;;;;;;8.24;100.00;93628.00;5135259;27;20203;-77
2022/11/18 01:52:49;;;;;;;68.73;41.10;;;;;;;8.18;100.00;93626.31;5133305;27;20195;-78
2022/11/18 01:55:23;;;;;;;58.70;35.80;;;;;;;8.11;100.00;93630.84;5133375;27;20192;-78
2022/11/18 01:57:55;;;;;;;44.87;26.93;;;;;;;8.11;100.00;93623.09;5132408;27;20252;-77
2022/11/18 02:00:22;;;;;;;39.03;24.93;;;;;;;8.02;100.00;93614.88;5131405;27;20192;-77
2022/11/18 02:02:49;;;;;;;36.23;23.80;;;;;;;8.05;100.00;93622.19;5136053;27;20207;-82
2022/11/18 02:05:17;;;;;;;37.90;24.23;;;;;;;8.08;100.00;93631.31;5142911;27;20224;-82
2022/11/18 02:07:44;;;;;;;42.60;25.13;;;;;;;8.05;100.00;93624.78;5139477;27;20661;-82
2022/11/18 02:10:21;;;;;;;45.17;26.53;;;;;;;8.10;100.00;93629.25;5139227;27;20211;-82
2022/11/18 02:12:49;;;;;;;44.23;26.60;;;;;;;8.13;100.00;93627.03;5143245;27;20206;-85
2022/11/18 02:15:18;;;;;;;39.70;25.07;;;;;;;8.09;100.00;93625.88;5147027;27;20205;-84
2022/11/18 02:17:54;;;;;;;41.43;25.20;;;;;;;8.12;100.00;93627.22;5147636;27;20683;-85
2022/11/18 02:20:36;;;;;;;41.10;24.17;;;;;;;8.08;100.00;93620.97;5145458;27;20187;-83
2022/11/18 02:23:41;;;;;;;43.63;24.40;;;;;;;8.09;100.00;93620.72;5139577;27;20255;-83
2022/11/18 02:26:44;;;;;;;39.30;24.03;;;;;;;8.06;100.00;93623.75;5142704;27;20214;-83
2022/11/18 02:29:17;;;;;;;42.63;24.13;;;;;;;8.09;100.00;93623.31;5142999;27;20186;-83
2022/11/18 02:31:51;;;;;;;42.07;26.10;;;;;;;7.92;100.00;93618.03;5144346;27;20211;-84
2022/11/18 02:34:31;;;;;;;43.97;26.43;;;;;;;7.87;100.00;93615.34;5160934;27;20613;-84
2022/11/18 02:37:03;;;;;;;43.40;26.60;;;;;;;7.91;100.00;93615.66;5140653;27;20187;-82
2022/11/18 02:39:34;;;;;;;42.47;26.03;;;;;;;7.91;100.00;93606.13;5145891;27;20203;-83
2022/11/18 02:42:05;;;;;;;45.03;26.77;;;;;;;7.80;100.00;93614.69;5148498;27;20191;-84
2022/11/18 02:44:35;;;;;;;50.37;31.90;;;;;;;7.78;100.00;93613.34;5143131;27;20196;-84
2022/11/18 02:47:07;;;;;;;50.47;30.17;;;;;;;7.78;100.00;93615.91;5139556;27;20195;-85
2022/11/18 02:49:38;;;;;;;57.60;31.77;;;;;;;7.78;100.00;93605.56;5144817;27;20657;-82
2022/11/18 02:52:08;;;;;;;52.60;31.57;;;;;;;7.72;100.00;93590.97;5145483;27;20191;-81
2022/11/18 02:54:39;;;;;;;48.13;29.87;;;;;;;7.85;100.00;93611.44;5150801;27;20198;-83
2022/11/18 02:57:06;;;;;;;44.43;29.10;;;;;;;7.83;100.00;93614.22;5143295;27;20199;-84
2022/11/18 02:59:35;;;;;;;57.30;29.37;;;;;;;7.82;100.00;93617.81;5141751;27;20270;-83
2022/11/18 03:02:02;;;;;;;47.57;29.20;;;;;;;7.85;100.00;93619.19;5142732;27;20195;-83
2022/11/18 03:04:30;;;;;;;44.93;28.40;;;;;;;7.85;100.00;93619.94;5137394;27;20202;-83
2022/11/18 03:07:06;;;;;;;48.20;29.30;;;;;;;7.85;100.00;93626.94;5152021;27;20209;-83
2022/11/18 03:09:36;;;;;;;49.20;30.40;;;;;;;7.78;100.00;93621.88;5141483;27;20206;-82
2022/11/18 03:12:11;;;;;;;44.60;29.03;;;;;;;7.79;100.00;93623.44;5138053;27;20239;-84
2022/11/18 03:14:47;;;;;;;50.93;29.63;;;;;;;7.79;100.00;93618.25;5143082;27;20205;-83
2022/11/18 03:17:19;;;;;;;54.83;30.27;;;;;;;7.79;100.00;93623.44;5133802;27;20243;-84
2022/11/18 03:19:59;;;;;;;65.53;36.63;;;;;;;7.85;100.00;93619.19;5134117;27;20187;-84
2022/11/18 03:22:30;;;;;;;63.80;37.00;;;;;;;7.87;100.00;93612.78;5133762;27;20187;-85
2022/11/18 03:25:15;;;;;;;62.03;33.27;;;;;;;7.85;100.00;93619.94;5143104;27;20605;-83
2022/11/18 03:27:48;;;;;;;52.77;31.57;;;;;;;7.81;100.00;93616.25;5145456;27;20688;-82
2022/11/18 03:30:20;;;;;;;50.97;32.03;;;;;;;7.80;100.00;93616.47;5141430;27;20207;-83
2022/11/18 03:32:52;;;;;;;55.30;30.50;;;;;;;7.73;100.00;93608.06;5139358;27;20194;-83
2022/11/18 03:35:23;;;;;;;45.63;28.33;;;;;;;7.81;100.00;93613.69;5140741;27;20255;-83
2022/11/18 03:37:54;;;;;;;44.53;27.30;;;;;;;7.69;100.00;93614.69;5137759;27;20194;-83
2022/11/18 03:40:25;;;;;;;50.43;31.13;;;;;;;7.71;100.00;93604.91;5143090;27;20573;-83
2022/11/18 03:42:58;;;;;;;45.80;28.17;;;;;;;7.68;100.00;93607.94;5133626;27;20677;-82
2022/11/18 03:45:31;;;;;;;44.37;28.23;;;;;;;7.78;100.00;93608.16;5133158;27;20736;-81
2022/11/18 03:48:02;;;;;;;50.57;30.93;;;;;;;7.81;100.00;93600.75;5141202;27;20260;-80
2022/11/18 03:50:34;;;;;;;53.07;30.07;;;;;;;7.87;100.00;93596.47;5139265;27;20243;-81
2022/11/18 03:53:03;;;;;;;51.33;31.10;;;;;;;7.86;100.00;93593.09;5133273;27;20195;-81
2022/11/18 03:55:33;;;;;;;77.97;40.20;;;;;;;7.77;100.00;93578.94;5133074;27;20204;-81
2022/11/18 03:58:05;;;;;;;66.30;41.40;;;;;;;7.84;100.00;93596.91;5140758;27;20203;-82
2022/11/18 04:00:36;;;;;;;67.20;39.33;;;;;;;7.62;100.00;93572.66;5139705;27;20202;-83
2022/11/18 04:03:04;;;;;;;65.40;37.37;;;;;;;7.54;100.00;93589.28;5150816;27;20194;-84
2022/11/18 04:05:34;;;;;;;67.90;38.20;;;;;;;7.54;100.00;93591.06;5134164;27;20297;-83
2022/11/18 04:08:04;;;;;;;70.07;39.37;;;;;;;7.57;100.00;93596.59;5136960;27;20258;-83
2022/11/18 04:10:35;;;;;;;68.97;38.43;;;;;;;7.65;100.00;93590.28;5141787;27;20226;-84
2022/11/18 04:13:07;;;;;;;70.33;38.40;;;;;;;7.60;100.00;93590.19;5133300;27;20210;-83
2022/11/18 04:15:37;;;;;;;74.37;39.53;;;;;;;7.65;100.00;93598.81;5148195;27;20207;-85
2022/11/18 04:18:04;;;;;;;75.23;38.80;;;;;;;7.78;100.00;93598.63;5143786;27;20660;-82
2022/11/18 04:20:32;;;;;;;81.33;39.77;;;;;;;7.90;100.00;93603.78;5143177;27;20194;-82
2022/11/18 04:22:59;;;;;;;72.47;38.07;;;;;;;7.94;100.00;93597.91;5141205;27;20286;-82
2022/11/18 04:25:27;;;;;;;70.37;38.23;;;;;;;7.90;100.00;93593.44;5142663;27;20223;-82
2022/11/18 04:27:55;;;;;;;76.10;37.23;;;;;;;7.90;100.00;93611.53;5140985;27;20599;-85
2022/11/18 04:30:21;;;;;;;80.33;38.13;;;;;;;7.95;100.00;93609.84;5135854;27;20196;-83
2022/11/18 04:32:50;;;;;;;74.90;37.20;;;;;;;7.98;100.00;93603.41;5143430;27;20206;-84
2022/11/18 04:35:16;;;;;;;76.30;36.77;;;;;;;7.98;100.00;93621.53;5153406;27;20199;-84
2022/11/18 04:37:43;;;;;;;82.60;36.10;;;;;;;8.07;100.00;93622.75;5152157;27;20195;-85
2022/11/18 04:40:11;;;;;;;67.80;34.57;;;;;;;8.02;100.00;93616.69;5139846;27;20203;-85
2022/11/18 04:42:38;;;;;;;66.20;33.67;;;;;;;8.07;100.00;93624.53;5140844;27;20191;-85
2022/11/18 04:45:06;;;;;;;65.20;33.90;;;;;;;8.14;100.00;93632.97;5141205;27;20194;-85
2022/11/18 04:47:33;;;;;;;60.57;33.03;;;;;;;8.12;100.00;93637.56;5140446;27;20210;-84
2022/11/18 04:50:01;;;;;;;63.73;33.13;;;;;;;7.98;100.00;93616.34;5140288;27;20259;-85
2022/11/18 04:52:28;;;;;;;64.30;32.53;;;;;;;8.16;100.00;93623.19;5135995;27;20215;-84
2022/11/18 04:54:54;;;;;;;60.57;32.03;;;;;;;8.19;100.00;93628.69;5139306;27;20195;-82
2022/11/18 04:57:21;;;;;;;53.13;30.07;;;;;;;8.15;100.00;93631.94;5145695;27;20248;-83
2022/11/18 04:59:48;;;;;;;64.97;31.60;;;;;;;8.23;100.00;93631.59;5146735;27;20573;-82
2022/11/18 05:02:15;;;;;;;58.83;29.13;;;;;;;8.27;100.00;93624.97;5139578;27;20214;-82
2022/11/18 05:04:42;;;;;;;76.03;31.60;;;;;;;8.27;100.00;93624.97;5140067;27;20661;-82
2022/11/18 05:07:14;;;;;;;62.37;30.43;;;;;;;8.38;100.00;93624.97;5143191;27;20252;-83
2022/11/18 05:09:41;;;;;;;84.63;32.73;;;;;;;8.31;100.00;93616.53;5141283;27;20199;-84
2022/11/18 05:15:10;;;;;;;71.07;33.50;;;;;;;8.32;100.00;93625.88;5074188;28;20220;-85
2022/11/18 05:17:36;;;;;;;67.47;33.90;;;;;;;8.28;100.00;93626.56;5062241;28;20204;-84
2022/11/18 05:20:04;;;;;;;105.83;37.47;;;;;;;8.28;100.00;93639.50;5099489;27;20198;-83
2022/11/18 05:22:32;;;;;;;166.10;41.17;;;;;;;8.30;100.00;93638.25;5147728;27;20207;-83
2022/11/18 05:24:59;;;;;;;212.77;41.60;;;;;;;8.35;100.00;93634.97;5137947;27;20226;-84
2022/11/18 05:27:26;;;;;;;141.33;37.23;;;;;;;8.26;100.00;93636.31;5144373;27;20190;-77
2022/11/18 05:29:52;;;;;;;126.77;38.00;;;;;;;8.18;100.00;93642.63;5139149;27;20625;-76
2022/11/18 05:32:19;;;;;;;80.93;35.80;;;;;;;8.06;100.00;93623.75;5134272;27;20289;-76
2022/11/18 05:34:46;;;;;;;171.83;37.33;;;;;;;8.15;100.00;93635.31;5139811;27;20195;-76
2022/11/18 05:37:13;;;;;;;79.80;34.63;;;;;;;8.12;100.00;93635.78;5133211;27;20199;-80
2022/11/18 05:39:41;;;;;;;99.20;36.03;;;;;;;8.18;100.00;93644.44;5136126;27;20210;-77
2022/11/18 05:44:52;;;;;;;171.33;37.00;;;;;;;8.20;100.00;93627.66;5134726;27;20224;-77
2022/11/18 05:47:19;;;;;;;167.37;37.17;;;;;;;8.10;100.00;93635.22;5133406;27;20199;-79
2022/11/18 05:49:46;;;;;;;207.77;39.77;;;;;;;7.89;100.00;93628.84;5137418;27;20252;-77
2022/11/18 05:52:12;;;;;;;184.60;37.77;;;;;;;7.83;100.00;93621.19;5135869;27;20215;-78
2022/11/18 05:54:44;;;;;;;95.07;34.10;;;;;;;7.85;100.00;93640.63;5135085;27;20196;-78
2022/11/18 05:57:11;;;;;;;139.87;37.70;;;;;;;7.83;100.00;93634.91;5135955;27;20191;-76
2022/11/18 05:59:38;;;;;;;217.67;37.67;;;;;;;7.82;100.00;93625.56;5134982;27;20276;-76
2022/11/18 06:02:08;;;;;;;125.03;36.47;;;;;;;7.83;100.00;93628.94;5132633;27;20195;-77
2022/11/18 06:04:39;;;;;;;68.07;33.20;;;;;;;7.82;100.00;93632.56;5132835;27;21558;-76
2022/11/18 06:07:10;;;;;;;233.20;38.87;;;;;;;7.78;100.00;93629.66;5133937;27;20188;-76
2022/11/18 06:09:43;;;;;;;199.07;36.57;;;;;;;7.84;100.00;93631.31;5134124;27;20593;-77
2022/11/18 06:12:16;;;;;;;91.80;34.30;;;;;;;7.86;100.00;93641.44;5139871;27;20221;-80
2022/11/18 06:14:46;;;;;;;173.90;36.30;;;;;;;7.91;100.00;93636.34;5140310;27;20578;-81
2022/11/18 06:17:20;;;;;;;83.97;31.70;;;;;;;7.88;100.00;93619.50;5134168;27;20279;-80
2022/11/18 06:19:47;;;;;;;148.83;34.20;;;;;;;7.97;100.00;93630.28;5135157;27;20195;-80
2022/11/18 06:22:14;;;;;;;98.90;31.83;;;;;;;8.03;100.00;93626.78;5133607;27;20191;-80
2022/11/18 06:24:43;;;;;;;81.80;30.63;;;;;;;8.14;100.00;93623.41;5134710;27;20230;-80
2022/11/18 06:27:11;;;;;;;99.53;29.93;;;;;;;8.22;100.00;93630.03;5140011;27;20207;-79
2022/11/18 06:29:38;;;;;;;66.40;29.10;;;;;;;8.23;100.00;93624.63;5133343;27;20199;-81
2022/11/18 06:32:05;;;;;;;123.23;29.17;;;;;;;8.33;100.00;93611.13;5139044;27;20218;-80
2022/11/18 06:34:31;;;;;;;132.50;29.17;;;;;;;8.40;100.00;93628.09;5135365;27;21487;-79
2022/11/18 06:36:58;;;;;;;167.00;29.23;;;;;;;8.46;100.00;93624.59;5133158;27;20199;-80
2022/11/18 06:39:25;;;;;;;127.57;28.37;;;;;;;8.49;100.00;93626.72;5136573;27;20191;-81
2022/11/18 06:41:54;;;;;;;138.83;30.20;;;;;;;8.52;100.00;93631.44;5143014;27;20187;-81
2022/11/18 06:44:19;;;;;;;88.07;28.60;;;;;;;8.50;100.00;93627.50;5134392;27;20196;-81
2022/11/18 06:46:55;;;;;;;123.57;30.63;;;;;;;8.56;100.00;93626.59;5138782;27;20251;-81
2022/11/18 06:49:23;;;;;;;78.43;28.90;;;;;;;8.60;100.00;93616.56;5143077;27;20211;-81
2022/11/18 06:51:49;;;;;;;210.47;31.70;;;;;;;8.63;100.00;93621.28;5138328;27;20222;-80
2022/11/18 06:54:16;;;;;;;79.20;30.13;;;;;;;8.69;100.00;93617.75;5135688;27;20187;-82
2022/11/18 06:56:43;;;;;;;99.73;30.80;;;;;;;8.72;100.00;93612.88;5137619;27;20213;-82
2022/11/18 06:59:11;;;;;;;141.37;29.60;;;;;;;8.70;100.00;93611.56;5142026;27;20198;-80
2022/11/18 07:01:40;;;;;;;127.33;31.27;;;;;;;8.71;100.00;93626.88;5133457;27;20191;-81
2022/11/18 07:04:06;;;;;;;115.80;31.03;;;;;;;8.78;100.00;93629.31;5139617;27;20601;-80
2022/11/18 07:06:35;;;;;;;72.27;28.63;;;;;;;8.81;100.00;93634.81;5136239;27;20232;-80
2022/11/18 07:09:05;;;;;;;159.73;29.90;;;;;;;8.87;100.00;93622.75;5135666;27;20195;-80
2022/11/18 07:11:31;;;;;;;220.27;30.47;;;;;;;8.89;100.00;93621.47;5138174;27;21557;-79
2022/11/18 07:13:59;;;;;;;84.40;25.97;;;;;;;8.88;100.00;93621.72;5137721;27;20195;-80
2022/11/18 07:16:27;;;;;;;79.27;27.50;;;;;;;8.88;100.00;93613.97;5137857;27;20278;-80
2022/11/18 07:18:56;;;;;;;170.47;29.17;;;;;;;8.97;100.00;93608.19;5137041;27;20669;-81
2022/11/18 07:21:24;;;;;;;79.40;26.73;;;;;;;8.99;100.00;93602.75;5135624;27;20188;-80
2022/11/18 07:23:51;;;;;;;79.27;27.33;;;;;;;9.07;100.00;93592.78;5130257;27;20251;-79
2022/11/18 07:26:36;;;;;;;105.43;26.20;;;;;;;9.01;100.00;93598.91;5093010;27;20195;-79
2022/11/18 07:29:04;;;;;;;62.93;27.73;;;;;;;9.04;100.00;93601.03;5131457;27;20203;-77
2022/11/18 07:31:34;;;;;;;67.77;25.77;;;;;;;9.08;100.00;93609.13;5128217;27;20226;-77
2022/11/18 07:34:01;;;;;;;88.10;27.30;;;;;;;9.07;100.00;93592.78;5130415;27;20203;-76
2022/11/18 07:36:29;;;;;;;64.50;27.93;;;;;;;9.16;100.00;93592.38;5129796;27;20617;-76
2022/11/18 07:38:58;;;;;;;58.37;26.40;;;;;;;9.27;100.00;93592.31;5130960;27;20183;-78
2022/11/18 07:41:27;;;;;;;72.67;28.33;;;;;;;9.26;100.00;93593.34;5132506;27;20188;-78
2022/11/18 07:43:55;;;;;;;85.80;27.50;;;;;;;9.28;100.00;93598.28;5132060;27;21605;-77
2022/11/18 07:46:24;;;;;;;78.10;31.17;;;;;;;9.39;100.00;93592.22;5131453;27;20233;-77
2022/11/18 07:48:53;;;;;;;68.03;27.93;;;;;;;9.36;100.00;93588.31;5132134;27;20203;-77
2022/11/18 07:51:22;;;;;;;58.43;26.30;;;;;;;9.52;100.00;93594.53;5131508;27;20232;-77
2022/11/18 07:53:49;;;;;;;56.27;26.40;;;;;;;9.44;100.00;93584.53;5133462;27;20381;-77
2022/11/18 07:56:17;;;;;;;63.40;26.10;;;;;;;9.51;100.00;93593.72;5130201;27;20191;-77
2022/11/18 07:58:44;;;;;;;64.87;27.43;;;;;;;9.62;100.00;93605.03;5131027;27;20195;-76
2022/11/18 08:01:13;;;;;;;55.77;25.63;;;;;;;9.61;100.00;93616.41;5130912;27;20195;-78
2022/11/18 08:03:41;;;;;;;66.73;27.70;;;;;;;9.63;100.00;93627.34;5130601;27;20196;-78
2022/11/18 08:06:11;;;;;;;65.73;28.97;;;;;;;9.72;100.00;93625.94;5131729;27;20209;-78
2022/11/18 08:08:39;;;;;;;58.33;26.53;;;;;;;9.69;100.00;93645.38;5132933;27;20222;-77
2022/11/18 08:11:07;;;;;;;67.07;27.13;;;;;;;9.55;100.00;93636.31;5129272;27;20207;-77
2022/11/18 08:13:35;;;;;;;87.00;27.67;;;;;;;9.31;100.00;93642.69;5129954;27;20236;-78
2022/11/18 08:16:02;;;;;;;79.27;27.93;;;;;;;9.40;100.00;93637.91;5129802;27;21046;-78
2022/11/18 08:18:30;;;;;;;55.40;26.77;;;;;;;9.44;100.00;93623.41;5130103;27;20195;-81
2022/11/18 08:21:01;;;;;;;58.73;27.23;;;;;;;9.40;100.00;93615.34;5133472;27;20196;-82
2022/11/18 08:23:30;;;;;;;61.07;27.57;;;;;;;9.32;100.00;93597.56;5129717;27;20199;-78
2022/11/18 08:26:02;;;;;;;66.90;28.57;;;;;;;9.42;100.00;93610.69;5133505;27;20244;-77
2022/11/18 08:28:29;;;;;;;67.67;30.40;;;;;;;9.40;100.00;93612.75;5129775;27;20280;-78
2022/11/18 08:30:56;;;;;;;75.57;31.00;;;;;;;9.49;100.00;93589.81;5130761;27;20191;-76
2022/11/18 08:33:23;;;;;;;77.20;31.53;;;;;;;9.52;100.00;93600.47;5131370;27;20276;-77
2022/11/18 08:35:50;;;;;;;86.80;33.53;;;;;;;9.51;100.00;93598.91;5133204;27;20890;-78
2022/11/18 08:38:17;;;;;;;82.73;31.53;;;;;;;9.51;100.00;93579.97;5130664;27;20187;-76
2022/11/18 08:40:47;;;;;;;82.17;32.77;;;;;;;9.55;100.00;93579.25;5122467;27;20198;-78
2022/11/18 08:43:14;;;;;;;72.30;31.73;;;;;;;9.68;100.00;93589.31;5131123;27;20213;-77
2022/11/18 08:45:41;;;;;;;85.80;32.17;;;;;;;9.82;100.00;93570.78;5133144;27;20199;-79
2022/11/18 08:48:08;;;;;;;83.90;32.83;;;;;;;9.97;100.00;93574.38;5128083;27;20199;-78
2022/11/18 08:50:35;;;;;;;73.40;32.40;;;;;;;9.95;100.00;93573.06;5134456;27;20199;-76
2022/11/18 08:53:02;;;;;;;92.07;32.00;;;;;;;10.02;100.00;93564.06;5131223;27;20299;-77
2022/11/18 08:55:29;;;;;;;82.37;32.70;;;;;;;10.06;100.00;93543.59;5131215;27;20661;-78
2022/11/18 08:57:57;;;;;;;75.37;31.40;;;;;;;10.09;100.00;93556.09;5135026;27;20195;-78
2022/11/18 09:00:24;;;;;;;77.57;31.87;;;;;;;10.19;100.00;93544.03;5131691;27;20198;-78
2022/11/18 09:02:51;;;;;;;80.60;34.40;;;;;;;10.34;100.00;93534.84;5134223;27;20200;-77
2022/11/18 09:05:17;;;;;;;85.53;34.50;;;;;;;10.43;100.00;93531.59;5137402;27;20190;-78
2022/11/18 09:07:44;;;;;;;76.77;31.43;;;;;;;10.43;100.00;93530.78;5138199;27;20203;-76
2022/11/18 09:10:11;;;;;;;72.10;32.10;;;;;;;10.56;100.00;93514.84;5135615;27;20695;-77
2022/11/18 09:12:38;;;;;;;69.37;29.97;;;;;;;10.71;100.00;93539.13;5135215;27;20223;-77
2022/11/18 09:15:07;;;;;;;67.87;30.50;;;;;;;10.92;100.00;93528.91;5132286;27;20668;-76
2022/11/18 09:17:34;;;;;;;74.80;29.97;;;;;;;10.97;100.00;93503.75;5135340;27;20195;-78
2022/11/18 09:20:01;;;;;;;77.50;30.80;;;;;;;11.24;100.00;93508.88;5137521;27;20252;-78
2022/11/18 09:22:28;;;;;;;79.93;31.50;;;;;;;11.47;100.00;93521.53;5133374;27;20210;-77
2022/11/18 09:24:55;;;;;;;66.37;30.07;;;;;;;11.54;100.00;93521.31;5133829;27;20226;-77
2022/11/18 09:27:21;;;;;;;63.00;30.83;;;;;;;11.66;100.00;93527.13;5133314;27;20191;-77
2022/11/18 09:29:48;;;;;;;69.27;29.60;;;;;;;11.70;100.00;93517.78;5138866;27;20670;-78
2022/11/18 09:32:16;;;;;;;64.00;29.60;;;;;;;11.82;100.00;93513.94;5134070;27;20222;-78
2022/11/18 09:34:43;;;;;;;61.97;28.47;;;;;;;12.49;100.00;93498.31;5135402;27;20199;-78
2022/11/18 09:37:10;;;;;;;56.97;27.20;;;;;;;13.71;100.00;93487.84;5135403;27;20193;-76
2022/11/18 09:39:37;;;;;;;59.27;24.60;;;;;;;14.98;100.00;93507.09;5135729;27;20196;-77
2022/11/18 09:42:18;;;;;;;55.83;25.97;;;;;;;16.06;100.00;93496.16;5132601;27;20668;-77
2022/11/18 09:44:55;;;;;;;58.27;25.73;;;;;;;17.69;94.04;93480.44;5133405;27;20205;-77
2022/11/18 09:47:28;;;;;;;47.87;24.20;;;;;;;18.75;87.04;93476.47;5132812;27;20199;-80
2022/11/18 09:49:58;;;;;;;47.10;24.97;;;;;;;19.56;82.74;93487.78;5134998;27;20190;-78
2022/11/18 09:52:34;;;;;;;45.90;24.13;;;;;;;20.11;79.89;93494.25;5134302;27;20218;-79
2022/11/18 09:55:01;;;;;;;48.20;24.90;;;;;;;20.90;77.02;93484.31;5134730;27;20206;-80
2022/11/18 09:57:37;;;;;;;47.43;25.77;;;;;;;21.75;72.54;93488.00;5136497;27;20191;-80
2022/11/18 10:00:13;;;;;;;44.83;23.73;;;;;;;22.08;70.76;93484.81;5134456;27;20191;-78
2022/11/18 10:02:56;;;;;;;43.13;23.55;;;;;;;23.03;67.49;93485.84;5132216;27;20187;-79
2022/11/18 10:05:25;;;;;;;46.15;24.65;;;;;;;23.01;66.14;93488.00;5132073;27;20868;-80
2022/11/18 10:08:12;;;;;;;46.67;24.77;;;;;;;23.13;66.34;93475.59;5132838;27;20195;-80
2022/11/18 10:10:47;;;;;;;52.45;26.58;;;;;;;23.47;65.30;93484.38;5132264;27;20625;-78
2022/11/18 10:13:27;;;;;;;42.55;25.70;;;;;;;23.47;63.85;93495.75;5133780;27;20572;-79
2022/11/18 10:16:00;;;;;;;42.15;24.77;;;;;;;24.17;62.62;93483.34;5133273;27;20191;-80
2022/11/18 10:18:38;;;;;;;44.20;24.95;;;;;;;24.68;59.49;93487.97;5132473;27;20622;-78
2022/11/18 10:21:16;;;;;;;52.78;24.60;;;;;;;24.25;59.84;93495.72;5134687;27;20198;-79
2022/11/18 10:23:52;;;;;;;45.83;24.17;;;;;;;24.68;59.58;93480.00;5132113;27;20238;-79
2022/11/18 10:26:33;;;;;;;45.40;24.85;;;;;;;24.50;59.12;93481.34;5131520;27;20187;-80
2022/11/18 10:29:00;;;;;;;39.88;24.77;;;;;;;24.63;58.93;93464.28;5144389;27;20274;-79
2022/11/18 10:31:26;;;;;;;44.20;23.80;;;;;;;25.23;57.74;93458.06;5143502;27;20196;-76
2022/11/18 10:34:01;;;;;;;48.95;26.27;;;;;;;24.47;58.08;93467.97;5142646;27;20221;-77
2022/11/18 10:36:29;;;;;;;52.58;26.73;;;;;;;23.88;59.99;93456.94;5143757;27;20533;-77
2022/11/18 10:39:12;;;;;;;46.67;26.08;;;;;;;23.85;61.63;93433.72;5142316;27;20183;-77
2022/11/18 10:41:42;;;;;;;47.30;25.75;;;;;;;24.25;58.73;93448.72;5144346;27;20195;-77
2022/11/18 10:44:29;;;;;;;39.00;22.55;;;;;;;24.58;58.49;93450.47;5143838;27;20188;-76
2022/11/18 10:46:56;;;;;;;35.65;20.35;;;;;;;24.73;56.11;93439.91;5143824;27;20182;-76
2022/11/18 10:49:24;;;;;;;31.67;20.42;;;;;;;24.51;56.79;93426.31;5142013;27;20197;-77
2022/11/18 10:52:08;;;;;;;35.15;20.40;;;;;;;23.99;57.48;93428.88;5144178;27;20198;-77
2022/11/18 10:54:36;;;;;;;32.95;19.95;;;;;;;23.29;60.06;93428.03;5143968;27;20198;-77
2022/11/18 10:57:07;;;;;;;47.35;20.80;;;;;;;23.09;60.91;93419.00;5141992;27;20198;-77
2022/11/18 10:59:38;;;;;;;33.97;20.15;;;;;;;22.69;61.39;93404.69;5144839;27;20194;-78
2022/11/18 11:02:17;;;;;;;34.45;20.92;;;;;;;22.31;62.32;93411.97;5143365;27;20176;-78
2022/11/18 11:04:48;;;;;;;39.33;21.35;;;;;;;21.79;64.73;93409.53;5141397;27;20199;-77
2022/11/18 11:07:26;;;;;;;40.15;22.10;;;;;;;21.03;66.83;93408.66;5143995;27;20182;-77
2022/11/18 11:10:18;;;;;;;40.58;22.05;;;;;;;20.28;68.91;93415.16;5143150;27;20191;-78
2022/11/18 11:12:49;;;;;;;39.80;23.33;;;;;;;19.94;70.18;93401.81;5142567;27;20242;-78
2022/11/18 11:15:21;;;;;;;45.08;24.85;;;;;;;19.59;71.85;93395.69;5141920;27;20673;-78
2022/11/18 11:18:40;;;;;;;49.38;25.38;;;;;;;19.39;73.28;93387.53;5142423;27;20206;-77
2022/11/18 11:20:40;;;;;;;49.33;27.83;;;;;;;19.12;74.67;93381.31;5142873;27;20191;-77
2022/11/18 11:23:10;;;;;;;50.45;28.42;;;;;;;18.92;75.80;93371.28;5142405;27;20192;-78
2022/11/18 11:25:42;;;;;;;49.58;28.58;;;;;;;18.96;77.23;93369.59;5139827;27;20246;-79
2022/11/18 11:28:18;;;;;;;53.45;30.15;;;;;;;18.68;78.20;93363.69;5143154;27;20194;-80
2022/11/18 11:30:51;;;;;;;49.63;29.27;;;;;;;18.64;77.78;93364.59;5140144;27;20197;-80
2022/11/18 11:33:33;;;;;;;54.55;32.00;;;;;;;18.43;78.56;93355.59;5145031;27;20195;-80
2022/11/18 11:36:27;;;;;;;57.92;31.08;;;;;;;18.00;80.48;93358.63;5141800;27;20213;-79
2022/11/18 11:39:01;;;;;;;50.88;29.30;;;;;;;17.53;82.76;93336.16;5141453;27;20187;-80